Nearby METAR Reports

 

KSJC - San Jose, California, USA
Distance from station: NE 9mi, 14km
Updated: Thu, 16-Aug-2018 8:53am PDT
Overcast
Overcast
 Wind from NNW
Wind: NNW 7 mph , 11 km/h
Temperature: 64°F , 18°C
Dew Point: 55°F , 13°C
Humidity: 73%
Barometer: 30.06 inHg , 1017.9 hPa
Clouds: Overcast
Visibility: 7 miles , 11 km
Cloud details: Few Clouds 600 ft
Mostly cloudy 1600 ft
Overcast 2000 ft
2018/08/16 15:53 KSJC 161553Z 33006KT 7SM FEW006 BKN016 OVC020 18/13 A3006 RMK AO2 SLP177 T01780133
KNUQ - Moffett Nas/Mtn, California, USA
Distance from station: N 9mi, 14km
Updated: Thu, 16-Aug-2018 8:56am PDT
Overcast
Overcast
 Wind from calm
Wind: Calm
Temperature: 64°F , 18°C
Dew Point: 55°F , 13°C
Humidity: 73%
Barometer: 30.06 inHg , 1017.9 hPa
Clouds: Overcast
Visibility: 8 miles , 13 km
Cloud details: Overcast 1800 ft
2018/08/16 15:56 KNUQ 161556Z 00000KT 8SM OVC018 18/13 A3006 RMK AO2 SLP182 T01780133
 
KPAO - Palo Alto, California, USA
Distance from station: NNW 14mi, 23km
Updated: Thu, 16-Aug-2018 6:47am PDT
NOT Current
Mostly cloudy
Mostly cloudy
 Wind from calm
Wind: Calm
Temperature: 59°F , 15°C
Dew Point: 55°F , 13°C
Humidity: 88%
Barometer: 30.03 inHg , 1016.9 hPa
Clouds: Mostly cloudy
Visibility: 8 miles , 13 km
Cloud details: Mostly cloudy 1600 ft
2018/08/16 13:47 KPAO 161347Z 00000KT 8SM BKN016 15/13 A3003
KRHV - San Jose/Reid, California, USA
Distance from station: ENE 12mi, 19km
Updated: Thu, 16-Aug-2018 8:50am PDT
Mostly cloudy
Mostly cloudy
 Wind from N
Wind: N 6 mph , 9 km/h
Temperature: 66°F , 19°C
Dew Point: 57°F , 14°C
Humidity: 73%
Barometer: 30.04 inHg , 1017.3 hPa
Clouds: Mostly cloudy
Visibility: 10 miles , 16 km
Cloud details: Mostly cloudy 2200 ft
2018/08/16 15:50 KRHV 161550Z 35005KT 10SM BKN022 19/14 A3004 RMK 31L CLOSED
 
KOAK - Oakland, California, USA
Distance from station: NNW 31mi, 50km
Updated: Thu, 16-Aug-2018 8:53am PDT
Partly cloudy
Partly cloudy
 Wind from WSW
Wind: WSW 12 mph , 19 km/h
Temperature: 63°F , 17°C
Dew Point: 55°F , 13°C
Humidity: 77%
Barometer: 30.05 inHg , 1017.6 hPa
Clouds: Partly cloudy
Visibility: 7 miles , 11 km
Cloud details: Partly cloudy 1300 ft
2018/08/16 15:53 KOAK 161553Z 24010KT 7SM SCT013 17/13 A3005 RMK AO2 SLP175 T01720128
KSQL - San Carlos Airpo, California, USA
Distance from station: NW 21mi, 34km
Updated: Thu, 16-Aug-2018 8:47am PDT
Partly cloudy
Partly cloudy
 Wind from W
Wind: W 7 mph , 11 km/h
Temperature: 63°F , 17°C
Dew Point: 55°F , 13°C
Humidity: 77%
Barometer: 30.06 inHg , 1017.9 hPa
Clouds: Partly cloudy
Visibility: 8 miles , 13 km
Cloud details: Partly cloudy 2000 ft
2018/08/16 15:47 KSQL 161547Z 27006KT 8SM SCT020 17/13 A3006
 
KSFO - San Francisco, California, USA
Distance from station: NW 30mi, 49km
Updated: Thu, 16-Aug-2018 8:56am PDT
Mostly cloudy
Mostly cloudy
 Wind from WSW
Wind: WSW 12 mph , 19 km/h
Temperature: 64°F , 18°C
Dew Point: 54°F , 12°C
Humidity: 68%
Barometer: 30.05 inHg , 1017.6 hPa
Clouds: Mostly cloudy
Visibility: 10 miles , 16 km
Cloud details: Few Clouds 900 ft
Mostly cloudy 1800 ft
2018/08/16 15:56 KSFO 161556Z 25010KT 10SM FEW009 BKN018 18/12 A3005 RMK AO2 SLP177 T01780117
KE16 - San Martin, California, USA
Distance from station: ESE 27mi, 43km
Updated: Thu, 16-Aug-2018 9:10am PDT
Clear
Clear
 Wind from NW
Wind: NW 8 mph , 13 km/h
Temperature: 66°F , 19°C
Dew Point: 55°F , 13°C
Humidity: 68%
Barometer: 30.07 inHg , 1018.3 hPa
Clouds: Clear
Visibility: 10 miles , 16 km
2018/08/16 16:10 KE16 161610Z AUTO 32007KT 10SM CLR 19/13 A3007 RMK AO2
 
KWVI - Watsonville, California, USA
Distance from station: SSE 27mi, 44km
Updated: Thu, 16-Aug-2018 8:53am PDT
Clear
Clear
 Wind from S
Wind: S 3 mph , 6 km/h
Temperature: 63°F , 17°C
Dew Point: 57°F , 14°C
Humidity: 83%
Barometer: 30.05 inHg , 1017.6 hPa
Clouds: Clear
Visibility: 9 miles , 14 km
2018/08/16 15:53 KWVI 161553Z AUTO 17003KT 9SM CLR 17/14 A3005 RMK AO2 SLP175 T01720139
KHAF - Half Moon Bay, California, USA
Distance from station: WNW 31mi, 50km
Updated: Thu, 16-Aug-2018 9:15am PDT
Overcast
Overcast
 Wind from NNW
Wind: NNW 7 mph , 11 km/h
Temperature: 61°F , 16°C
Dew Point: 55°F , 13°C
Humidity: 83%
Barometer: 30.07 inHg , 1018.3 hPa
Clouds: Overcast
Visibility: 7 miles , 11 km
Cloud details: Overcast 1800 ft
2018/08/16 16:15 KHAF 161615Z AUTO 34006KT 7SM OVC018 16/13 A3007 RMK AO2
 
KHWD - Hayward, California, USA
Distance from station: N 28mi, 44km
Updated: Thu, 16-Aug-2018 8:54am PDT
Partly cloudy
Partly cloudy
 Wind from WSW
Wind: WSW 6 mph , 9 km/h
Temperature: 64°F , 18°C
Dew Point: 55°F , 13°C
Humidity: 73%
Barometer: 30.05 inHg , 1017.6 hPa
Clouds: Partly cloudy
Visibility: 9 miles , 14 km
Cloud details: Partly cloudy 1700 ft
2018/08/16 15:54 KHWD 161554Z 24005KT 9SM SCT017 18/13 A3005 RMK AO2 SLP184 T01830128
KLVK - Livermore, California, USA
Distance from station: NNE 31mi, 51km
Updated: Thu, 16-Aug-2018 8:53am PDT
Haze, Few clouds
Haze, Few clouds
 Wind from calm
Wind: Calm
Temperature: 63°F , 17°C
Dew Point: 55°F , 13°C
Humidity: 77%
Barometer: 30.04 inHg , 1017.3 hPa
Summary: Haze
Clouds: Few Clouds
Visibility: 6 miles , 10 km
Cloud details: Few Clouds 1300 ft
2018/08/16 15:53 KLVK 161553Z 00000KT 6SM HZ FEW013 17/13 A3004 RMK AO2 SLP171 T01720128